Time;durP1;ratioP1;P1;durP2;ratioP2;P2;SDS_P1;SDS_P2;PMS_P1;PMS_P2;Temp;Humidity;BMP_temperature;BMP_pressure;BME280_temperature;BME280_humidity;BME280_pressure;Samples;Min_cycle;Max_cycle;Signal;HPM_P1;HPM_P2
2022/04/14 00:02:06;;;;;;;11.30;6.68;;;12.40;99.90;;;;;;4997155;28;20045;-77
2022/04/14 00:04:35;;;;;;;10.85;6.75;;;12.30;99.90;;;;;;5013274;28;20131;-77
2022/04/14 00:07:02;;;;;;;11.27;6.78;;;12.30;99.90;;;;;;5012900;28;20494;-78
2022/04/14 00:09:28;;;;;;;11.73;6.13;;;12.30;99.90;;;;;;4997564;28;20104;-77
2022/04/14 00:11:55;;;;;;;13.32;6.97;;;12.20;99.90;;;;;;5012987;28;20038;-77
2022/04/14 00:14:20;;;;;;;12.07;7.38;;;12.20;99.90;;;;;;5013882;28;20038;-77
2022/04/14 00:16:46;;;;;;;12.95;6.97;;;12.20;99.90;;;;;;4996394;28;20044;-76
2022/04/14 00:19:12;;;;;;;12.35;6.60;;;12.00;99.90;;;;;;5013793;28;20034;-76
2022/04/14 00:21:37;;;;;;;15.23;7.15;;;12.10;99.90;;;;;;5011885;28;20046;-76
2022/04/14 00:24:03;;;;;;;13.07;6.93;;;12.10;99.90;;;;;;5013408;28;20483;-76
2022/04/14 00:26:29;;;;;;;12.13;7.10;;;12.10;99.90;;;;;;5012010;28;20046;-76
2022/04/14 00:28:54;;;;;;;13.82;6.68;;;12.20;99.90;;;;;;4996389;28;20124;-76
2022/04/14 00:31:20;;;;;;;10.77;7.05;;;12.20;99.90;;;;;;4992754;28;20045;-75
2022/04/14 00:33:45;;;;;;;12.77;7.07;;;12.20;99.90;;;;;;4977722;28;20042;-76
2022/04/14 00:36:11;;;;;;;13.90;6.85;;;12.20;99.90;;;;;;5004775;28;20468;-76
2022/04/14 00:38:36;;;;;;;12.70;7.00;;;12.10;99.90;;;;;;5013303;28;20041;-76
2022/04/14 00:41:02;;;;;;;12.15;7.63;;;12.10;99.90;;;;;;5012364;28;20038;-76
2022/04/14 00:43:31;;;;;;;13.40;7.68;;;11.90;99.90;;;;;;4996995;28;20034;-76
2022/04/14 00:45:59;;;;;;;11.88;6.82;;;11.70;99.90;;;;;;4995154;28;20046;-76
2022/04/14 00:48:24;;;;;;;11.98;6.95;;;11.80;99.90;;;;;;5012556;28;20041;-76
2022/04/14 00:50:50;;;;;;;12.68;6.85;;;11.80;99.90;;;;;;5012523;28;20052;-75
2022/04/14 00:53:16;;;;;;;13.45;7.45;;;11.90;99.90;;;;;;4996734;28;20030;-75
2022/04/14 00:55:41;;;;;;;12.70;7.20;;;11.90;99.90;;;;;;4992599;28;20458;-76
2022/04/14 00:58:07;;;;;;;12.55;7.40;;;11.80;99.90;;;;;;4977628;28;20042;-76
2022/04/14 01:00:33;;;;;;;12.07;7.95;;;11.70;99.90;;;;;;5000144;28;20052;-75
2022/04/14 01:02:59;;;;;;;13.73;6.90;;;11.60;99.90;;;;;;4996888;28;20060;-75
2022/04/14 01:05:26;;;;;;;14.10;7.38;;;11.50;99.90;;;;;;5012204;28;20494;-76
2022/04/14 01:07:54;;;;;;;11.77;7.30;;;11.40;99.90;;;;;;5011670;28;20056;-75
2022/04/14 01:10:20;;;;;;;13.13;7.35;;;11.40;99.90;;;;;;5012227;28;20045;-75
2022/04/14 01:12:46;;;;;;;15.27;7.82;;;11.50;99.90;;;;;;5013019;28;20042;-75
2022/04/14 01:15:15;;;;;;;12.77;7.65;;;11.30;99.90;;;;;;5010763;28;20561;-75
2022/04/14 01:17:42;;;;;;;11.77;7.43;;;11.30;99.90;;;;;;4985050;28;20053;-75
2022/04/14 01:20:11;;;;;;;11.10;7.15;;;11.20;99.90;;;;;;4976914;28;20053;-75
2022/04/14 01:22:54;;;;;;;12.43;7.05;;;11.10;99.90;;;;;;5004440;28;20046;-75
2022/04/14 01:25:19;;;;;;;14.80;6.78;;;11.10;99.90;;;;;;5014963;28;20041;-76
2022/04/14 01:27:45;;;;;;;10.60;7.00;;;11.20;99.90;;;;;;4999414;28;20444;-75
2022/04/14 01:30:11;;;;;;;12.57;7.60;;;11.20;99.90;;;;;;4996028;28;20079;-75
2022/04/14 01:32:36;;;;;;;14.50;8.25;;;11.10;99.90;;;;;;5015738;28;20041;-75
2022/04/14 01:35:02;;;;;;;11.57;7.20;;;11.10;99.90;;;;;;5014640;28;20029;-76
2022/04/14 01:37:28;;;;;;;12.98;7.05;;;11.10;99.90;;;;;;4999173;28;20393;-76
2022/04/14 01:39:53;;;;;;;10.07;6.75;;;11.10;99.90;;;;;;4998578;28;20108;-76
2022/04/14 01:42:19;;;;;;;10.25;6.85;;;11.10;99.90;;;;;;4998841;28;20045;-76
2022/04/14 01:44:44;;;;;;;13.27;7.65;;;11.10;99.90;;;;;;5014590;28;20130;-75
2022/04/14 01:47:10;;;;;;;12.50;7.63;;;11.10;99.90;;;;;;4999203;28;20521;-76
2022/04/14 01:49:35;;;;;;;10.10;6.70;;;11.00;99.90;;;;;;4998174;28;20045;-75
2022/04/14 01:52:01;;;;;;;12.38;8.07;;;11.10;99.90;;;;;;4997895;28;20135;-75
2022/04/14 01:54:27;;;;;;;14.32;7.45;;;11.10;99.90;;;;;;4995472;28;20045;-75
2022/04/14 01:56:52;;;;;;;11.45;6.75;;;11.10;99.90;;;;;;5000163;28;20457;-77
2022/04/14 01:59:18;;;;;;;10.85;6.80;;;11.00;99.90;;;;;;5008115;28;20045;-77
2022/04/14 02:01:43;;;;;;;11.27;7.32;;;11.00;99.90;;;;;;5023245;28;20072;-76
2022/04/14 02:04:09;;;;;;;11.40;7.38;;;11.00;99.90;;;;;;5016752;28;20119;-75
2022/04/14 02:06:35;;;;;;;13.73;8.02;;;11.10;99.90;;;;;;4982762;28;20042;-75
2022/04/14 02:09:01;;;;;;;14.23;7.97;;;11.20;99.90;;;;;;4990986;28;20040;-75
2022/04/14 02:11:26;;;;;;;13.32;8.40;;;11.10;99.90;;;;;;4988135;28;20042;-75
2022/04/14 02:13:52;;;;;;;12.50;8.00;;;11.00;99.90;;;;;;4990380;28;20127;-75
2022/04/14 02:16:18;;;;;;;13.40;7.82;;;11.00;99.90;;;;;;4974519;28;20044;-76
2022/04/14 02:18:43;;;;;;;13.68;8.30;;;11.00;99.90;;;;;;4989263;28;20041;-75
2022/04/14 02:21:09;;;;;;;11.68;8.45;;;11.10;99.90;;;;;;4989640;28;20042;-76
2022/04/14 02:23:34;;;;;;;13.82;8.75;;;11.00;99.90;;;;;;4988719;28;20413;-77
2022/04/14 02:26:00;;;;;;;14.70;9.07;;;10.90;99.90;;;;;;4975846;28;20128;-76
2022/04/14 02:28:26;;;;;;;13.38;8.30;;;10.80;99.90;;;;;;4995247;28;20539;-75
2022/04/14 02:30:51;;;;;;;15.38;9.85;;;10.70;99.90;;;;;;4994456;28;20044;-76
2022/04/14 02:33:17;;;;;;;12.80;8.23;;;10.60;99.90;;;;;;4975704;28;20259;-76
2022/04/14 02:35:43;;;;;;;12.20;8.32;;;10.50;99.90;;;;;;4988299;28;20056;-76
2022/04/14 02:38:09;;;;;;;13.77;8.77;;;10.50;99.90;;;;;;4973917;28;20163;-75
2022/04/14 02:40:34;;;;;;;12.88;7.95;;;10.50;99.90;;;;;;4988979;28;20609;-76
2022/04/14 02:43:00;;;;;;;14.23;9.30;;;10.50;99.90;;;;;;4988117;28;20485;-76
2022/04/14 02:45:27;;;;;;;13.50;8.00;;;10.50;99.90;;;;;;4992292;28;20135;-75
2022/04/14 02:47:53;;;;;;;13.98;8.57;;;10.50;99.90;;;;;;4988855;28;20763;-76
2022/04/14 02:50:20;;;;;;;14.05;8.60;;;10.50;99.90;;;;;;5008444;28;20064;-75
2022/04/14 02:52:47;;;;;;;14.48;8.80;;;10.50;99.90;;;;;;4989313;28;20041;-77
2022/04/14 02:55:13;;;;;;;11.18;7.65;;;10.40;99.90;;;;;;4991208;28;20057;-77
2022/04/14 02:57:39;;;;;;;13.25;8.35;;;10.40;99.90;;;;;;4999197;28;20046;-76
2022/04/14 03:00:09;;;;;;;13.75;8.15;;;10.40;99.90;;;;;;5002435;28;20396;-76
2022/04/14 03:02:35;;;;;;;14.00;8.57;;;10.40;99.90;;;;;;5018403;28;20073;-76
2022/04/14 03:05:02;;;;;;;14.60;8.38;;;10.50;99.90;;;;;;4988864;28;20476;-76
2022/04/14 03:07:28;;;;;;;12.00;8.85;;;10.50;99.90;;;;;;4995094;28;20042;-76
2022/04/14 03:09:54;;;;;;;14.82;8.63;;;10.50;99.90;;;;;;4992432;28;20088;-76
2022/04/14 03:12:19;;;;;;;13.48;8.95;;;10.60;99.90;;;;;;4991887;28;20687;-75
2022/04/14 03:14:47;;;;;;;12.85;8.82;;;10.50;99.90;;;;;;4975723;28;20037;-76
2022/04/14 03:17:12;;;;;;;12.90;8.55;;;10.50;99.90;;;;;;4991447;28;20485;-76
2022/04/14 03:19:38;;;;;;;14.65;9.15;;;10.50;99.90;;;;;;4995896;28;20037;-76
2022/04/14 03:22:04;;;;;;;14.98;9.93;;;10.40;99.90;;;;;;4977445;28;20044;-76
2022/04/14 03:24:30;;;;;;;14.80;10.18;;;10.30;99.90;;;;;;4991789;28;20488;-76
2022/04/14 03:26:56;;;;;;;12.25;8.35;;;10.40;99.90;;;;;;4981042;28;20104;-76
2022/04/14 03:29:21;;;;;;;11.73;8.68;;;10.40;99.90;;;;;;4978430;28;20484;-76
2022/04/14 03:31:47;;;;;;;13.45;9.15;;;10.40;99.90;;;;;;4992393;28;20045;-76
2022/04/14 03:34:12;;;;;;;15.30;8.98;;;10.30;99.90;;;;;;4989540;28;20034;-76
2022/04/14 03:36:38;;;;;;;13.65;9.52;;;10.30;99.90;;;;;;4978157;28;20777;-76
2022/04/14 03:39:04;;;;;;;13.95;8.82;;;10.30;99.90;;;;;;5000511;28;20072;-76
2022/04/14 03:41:30;;;;;;;12.50;9.05;;;10.20;99.90;;;;;;4975840;28;20045;-76
2022/04/14 03:43:57;;;;;;;13.95;8.45;;;10.10;99.90;;;;;;4990908;28;20490;-76
2022/04/14 03:46:22;;;;;;;12.80;9.38;;;10.10;99.90;;;;;;4977903;28;20080;-76
2022/04/14 03:48:48;;;;;;;14.57;10.00;;;10.10;99.90;;;;;;5002042;28;20068;-76
2022/04/14 03:51:14;;;;;;;16.48;10.07;;;9.90;99.90;;;;;;4996017;28;20045;-76
2022/04/14 03:53:43;;;;;;;14.80;9.60;;;9.90;99.90;;;;;;4990727;28;20045;-76
2022/04/14 03:56:12;;;;;;;15.32;10.40;;;9.90;99.90;;;;;;4979637;28;20037;-76
2022/04/14 03:58:38;;;;;;;14.48;10.25;;;9.80;99.90;;;;;;4978407;28;20098;-76
2022/04/14 04:01:03;;;;;;;16.58;10.35;;;9.80;99.90;;;;;;4978767;28;20045;-76
2022/04/14 04:03:29;;;;;;;17.02;10.52;;;9.90;99.90;;;;;;4991231;28;20044;-76
2022/04/14 04:05:55;;;;;;;16.48;10.43;;;9.90;99.90;;;;;;5000481;28;20025;-76
2022/04/14 04:08:21;;;;;;;15.70;10.45;;;9.90;99.90;;;;;;4998824;28;20029;-76
2022/04/14 04:10:46;;;;;;;16.13;10.68;;;9.90;99.90;;;;;;4999836;28;20029;-75
2022/04/14 04:13:12;;;;;;;13.75;10.70;;;9.80;99.90;;;;;;5016954;28;20042;-75
2022/04/14 04:15:38;;;;;;;14.68;11.50;;;9.80;99.90;;;;;;5017185;28;20370;-75
2022/04/14 04:18:05;;;;;;;17.13;11.77;;;9.60;99.90;;;;;;4984002;28;20128;-75
2022/04/14 04:20:31;;;;;;;15.32;10.93;;;9.60;99.90;;;;;;4997418;28;20044;-75
2022/04/14 04:22:57;;;;;;;15.88;10.55;;;9.60;99.90;;;;;;4980928;28;20108;-76
2022/04/14 04:25:22;;;;;;;17.63;11.13;;;9.60;99.90;;;;;;4979934;28;20045;-75
2022/04/14 04:27:48;;;;;;;14.80;10.48;;;9.60;99.90;;;;;;4989788;28;20041;-76
2022/04/14 04:30:13;;;;;;;15.48;10.73;;;9.60;99.90;;;;;;4977357;28;20584;-76
2022/04/14 04:32:39;;;;;;;17.55;12.18;;;9.60;99.90;;;;;;4978380;28;20048;-76
2022/04/14 04:35:06;;;;;;;15.07;11.30;;;9.60;99.90;;;;;;4993764;28;20057;-75
2022/04/14 04:37:32;;;;;;;15.73;11.23;;;9.60;99.90;;;;;;4988592;28;20049;-76
2022/04/14 04:39:58;;;;;;;16.13;11.52;;;9.50;99.90;;;;;;4998784;28;20504;-75
2022/04/14 04:42:24;;;;;;;16.55;11.55;;;9.50;99.90;;;;;;4977167;28;20092;-75
2022/04/14 04:44:50;;;;;;;15.98;11.55;;;9.40;99.90;;;;;;4989610;28;20136;-76
2022/04/14 04:47:16;;;;;;;15.00;11.27;;;9.30;99.90;;;;;;4980581;28;20063;-75
2022/04/14 04:49:42;;;;;;;17.83;13.05;;;9.30;99.90;;;;;;5003812;28;20069;-75
2022/04/14 04:52:08;;;;;;;17.48;12.35;;;9.20;99.90;;;;;;4991066;28;20549;-75
2022/04/14 04:54:34;;;;;;;14.52;11.35;;;9.20;99.90;;;;;;4992474;28;20037;-75
2022/04/14 04:56:59;;;;;;;17.67;12.35;;;9.30;99.90;;;;;;4989308;28;20057;-76
2022/04/14 04:59:25;;;;;;;15.00;11.57;;;9.30;99.90;;;;;;4990399;28;20045;-75
2022/04/14 05:01:51;;;;;;;16.55;10.82;;;9.30;99.90;;;;;;4992624;28;20038;-75
2022/04/14 05:04:17;;;;;;;14.60;10.90;;;9.30;99.90;;;;;;4992012;28;20510;-75
2022/04/14 05:06:43;;;;;;;14.95;11.15;;;9.30;99.90;;;;;;4990830;28;20107;-75
2022/04/14 05:09:08;;;;;;;15.68;12.02;;;9.30;99.90;;;;;;5000011;28;20496;-75
2022/04/14 05:11:34;;;;;;;15.30;11.75;;;9.40;99.90;;;;;;4993208;28;20095;-75
2022/04/14 05:14:00;;;;;;;17.08;12.38;;;9.40;99.90;;;;;;4989026;28;20490;-75
2022/04/14 05:16:26;;;;;;;15.05;10.63;;;9.30;99.90;;;;;;5000703;28;20132;-75
2022/04/14 05:18:51;;;;;;;12.70;8.75;;;9.40;99.90;;;;;;4976575;28;20037;-75
2022/04/14 05:21:17;;;;;;;12.05;8.88;;;9.30;99.90;;;;;;4989173;28;20450;-75
2022/04/14 05:23:43;;;;;;;11.68;8.68;;;9.10;99.90;;;;;;4992106;28;20057;-75
2022/04/14 05:26:09;;;;;;;14.00;10.25;;;9.00;99.90;;;;;;4975464;28;20056;-75
2022/04/14 05:28:35;;;;;;;14.40;9.90;;;9.10;99.90;;;;;;4989870;28;20041;-75
2022/04/14 05:31:01;;;;;;;12.93;8.75;;;9.10;99.90;;;;;;4978416;28;20083;-75
2022/04/14 05:33:26;;;;;;;10.75;7.70;;;9.10;99.90;;;;;;4989346;28;20656;-75
2022/04/14 05:35:52;;;;;;;10.90;7.80;;;9.20;99.90;;;;;;4976501;28;20040;-77
2022/04/14 05:38:17;;;;;;;16.25;11.50;;;9.10;99.90;;;;;;4973397;28;20048;-77
2022/04/14 05:40:45;;;;;;;15.00;11.32;;;9.10;99.90;;;;;;4990219;28;20144;-77
2022/04/14 05:43:18;;;;;;;15.90;11.65;;;9.10;99.90;;;;;;4988825;28;20057;-77
2022/04/14 05:45:44;;;;;;;15.00;10.95;;;9.10;99.90;;;;;;4977820;28;20047;-77
2022/04/14 05:48:19;;;;;;;15.82;10.90;;;9.00;99.90;;;;;;4991341;28;20068;-77
2022/04/14 05:50:46;;;;;;;12.93;8.95;;;9.00;99.90;;;;;;4983355;28;20052;-76
2022/04/14 05:53:12;;;;;;;12.90;9.32;;;9.00;99.90;;;;;;4998333;28;20026;-76
2022/04/14 05:55:40;;;;;;;14.73;10.93;;;9.00;99.90;;;;;;5011573;28;20120;-76
2022/04/14 05:58:06;;;;;;;19.88;14.63;;;9.00;99.90;;;;;;4996022;28;20080;-76
2022/04/14 06:00:33;;;;;;;23.73;17.42;;;9.20;99.90;;;;;;4997017;28;20085;-76
2022/04/14 06:02:59;;;;;;;23.90;18.27;;;9.40;99.90;;;;;;4995464;28;20554;-77
2022/04/14 06:05:29;;;;;;;26.25;18.88;;;9.40;99.90;;;;;;5011543;28;20049;-76
2022/04/14 06:07:55;;;;;;;28.52;19.77;;;9.40;99.90;;;;;;4997844;28;20063;-76
2022/04/14 06:10:22;;;;;;;28.23;20.75;;;9.60;99.90;;;;;;4997741;28;20464;-77
2022/04/14 06:12:49;;;;;;;26.75;20.00;;;9.70;99.90;;;;;;4989870;28;20444;-77
2022/04/14 06:15:14;;;;;;;32.05;24.00;;;9.80;99.90;;;;;;5014805;28;20083;-77
2022/04/14 06:17:42;;;;;;;37.70;25.27;;;9.90;99.90;;;;;;5015173;28;20037;-76
2022/04/14 06:20:08;;;;;;;39.33;27.60;;;10.00;99.90;;;;;;4998533;28;20049;-76
2022/04/14 06:22:41;;;;;;;36.88;26.70;;;10.00;99.90;;;;;;4998024;28;20037;-77
2022/04/14 06:25:12;;;;;;;35.65;28.15;;;10.00;99.90;;;;;;4997918;28;20080;-77
2022/04/14 06:27:43;;;;;;;37.45;26.48;;;10.10;99.90;;;;;;5015434;28;20046;-77
2022/04/14 06:30:10;;;;;;;36.20;25.25;;;10.20;99.90;;;;;;5004193;28;20429;-77
2022/04/14 06:32:36;;;;;;;34.67;25.50;;;10.40;99.90;;;;;;5006165;28;20045;-77
2022/04/14 06:35:07;;;;;;;36.80;27.23;;;10.50;99.90;;;;;;5018541;28;20083;-77
2022/04/14 06:37:36;;;;;;;34.25;25.13;;;10.50;99.90;;;;;;5001339;28;20041;-77
2022/04/14 06:40:03;;;;;;;34.45;25.15;;;10.60;99.90;;;;;;5002649;28;20044;-77
2022/04/14 06:42:29;;;;;;;38.22;27.60;;;10.80;99.90;;;;;;5001145;28;20048;-77
2022/04/14 06:45:01;;;;;;;39.03;28.95;;;10.80;99.90;;;;;;5018938;28;20049;-77
2022/04/14 06:47:27;;;;;;;38.00;28.20;;;10.80;99.90;;;;;;5017202;28;20120;-77
2022/04/14 06:49:53;;;;;;;38.55;26.92;;;10.80;99.90;;;;;;4998534;28;20124;-77
2022/04/14 06:52:19;;;;;;;41.40;28.00;;;10.90;99.90;;;;;;5015330;28;20550;-77
2022/04/14 06:54:45;;;;;;;41.35;28.13;;;11.00;99.90;;;;;;5018535;28;20485;-77
2022/04/14 06:57:10;;;;;;;38.72;27.05;;;11.10;99.90;;;;;;4998120;28;20052;-78
2022/04/14 06:59:36;;;;;;;33.75;21.95;;;11.20;99.90;;;;;;4983075;28;20042;-77
2022/04/14 07:02:02;;;;;;;33.67;22.85;;;11.40;99.90;;;;;;4996721;28;20569;-77
2022/04/14 07:04:28;;;;;;;36.22;22.08;;;11.60;99.90;;;;;;5001758;28;20448;-77
2022/04/14 07:06:54;;;;;;;32.17;20.75;;;11.80;99.90;;;;;;5015932;28;20124;-77
2022/04/14 07:09:20;;;;;;;30.67;22.30;;;11.90;99.90;;;;;;5018038;28;20494;-77
2022/04/14 07:11:45;;;;;;;31.75;21.73;;;12.00;99.90;;;;;;4989556;28;20038;-77
2022/04/14 07:14:11;;;;;;;29.77;21.33;;;12.10;99.90;;;;;;4982045;28;20041;-77
2022/04/14 07:16:36;;;;;;;28.42;19.45;;;12.30;99.90;;;;;;4982497;28;20045;-77
2022/04/14 07:19:02;;;;;;;26.75;17.40;;;12.40;99.90;;;;;;5004862;28;20059;-77
2022/04/14 07:21:28;;;;;;;30.63;20.95;;;12.60;99.90;;;;;;4988756;28;20096;-78
2022/04/14 07:23:53;;;;;;;31.98;20.25;;;12.60;99.90;;;;;;4998017;28;20091;-77
2022/04/14 07:26:19;;;;;;;26.23;20.27;;;12.60;99.90;;;;;;4981861;28;20041;-77
2022/04/14 07:28:45;;;;;;;26.77;19.58;;;12.60;99.90;;;;;;4982083;28;20056;-77
2022/04/14 07:31:11;;;;;;;25.70;19.75;;;12.70;99.90;;;;;;5007200;28;20038;-77
2022/04/14 07:33:36;;;;;;;27.17;19.60;;;12.80;99.90;;;;;;5001604;28;20033;-77
2022/04/14 07:36:03;;;;;;;29.45;20.90;;;12.80;99.90;;;;;;4999575;28;20025;-77
2022/04/14 07:38:28;;;;;;;28.67;19.40;;;12.80;99.90;;;;;;5017268;28;20053;-77
2022/04/14 07:40:56;;;;;;;24.88;18.25;;;13.00;99.90;;;;;;4999781;28;20051;-77
2022/04/14 07:43:22;;;;;;;25.58;17.08;;;13.10;99.90;;;;;;5017380;28;20045;-77
2022/04/14 07:45:48;;;;;;;24.88;17.95;;;13.20;99.90;;;;;;4997487;28;20414;-77
2022/04/14 07:48:13;;;;;;;25.77;17.65;;;13.30;99.90;;;;;;4998498;28;20112;-77
2022/04/14 07:50:39;;;;;;;24.88;17.50;;;13.50;99.90;;;;;;4988952;28;20132;-77
2022/04/14 07:53:04;;;;;;;25.67;18.23;;;13.40;99.90;;;;;;5017496;28;20030;-77
2022/04/14 07:55:34;;;;;;;24.02;17.80;;;13.30;99.90;;;;;;4993148;28;20034;-77
2022/04/14 07:58:04;;;;;;;22.73;17.48;;;13.30;99.90;;;;;;4997738;28;20049;-77
2022/04/14 08:00:30;;;;;;;25.45;18.30;;;13.50;99.90;;;;;;5003380;28;20501;-77
2022/04/14 08:03:00;;;;;;;22.33;15.82;;;13.40;99.90;;;;;;5017441;28;20038;-77
2022/04/14 08:05:33;;;;;;;24.33;16.90;;;13.60;99.90;;;;;;5015942;28;20045;-78
2022/04/14 08:08:00;;;;;;;23.77;17.48;;;13.70;99.90;;;;;;4985734;28;20049;-77
2022/04/14 08:10:26;;;;;;;23.75;18.65;;;13.70;99.90;;;;;;4991500;28;20048;-77
2022/04/14 08:12:53;;;;;;;23.45;17.30;;;13.80;99.90;;;;;;4998936;28;20486;-77
2022/04/14 08:15:18;;;;;;;22.90;16.75;;;13.80;99.90;;;;;;5014952;28;20134;-77
2022/04/14 08:17:44;;;;;;;25.23;17.63;;;13.90;99.90;;;;;;4988245;28;20077;-77
2022/04/14 08:20:11;;;;;;;23.67;18.30;;;13.90;99.90;;;;;;5019128;28;20037;-77
2022/04/14 08:22:52;;;;;;;25.25;18.42;;;14.00;99.90;;;;;;5011428;28;20056;-77
2022/04/14 08:25:39;;;;;;;20.88;15.75;;;14.00;99.90;;;;;;4998782;28;20172;-77
2022/04/14 08:28:05;;;;;;;24.13;17.75;;;14.10;99.90;;;;;;4999336;28;20108;-77
2022/04/14 08:30:32;;;;;;;24.63;17.23;;;14.20;99.90;;;;;;5016869;28;20048;-77
2022/04/14 08:33:00;;;;;;;23.65;17.17;;;14.30;99.90;;;;;;5016514;28;20077;-77
2022/04/14 08:35:28;;;;;;;25.13;17.58;;;14.30;99.90;;;;;;5014870;28;20112;-77
2022/04/14 08:37:54;;;;;;;25.60;19.05;;;14.40;99.90;;;;;;5000093;28;20042;-77
2022/04/14 08:40:22;;;;;;;23.13;17.60;;;14.60;99.90;;;;;;5009663;28;20550;-77
2022/04/14 08:43:01;;;;;;;22.83;17.20;;;14.70;99.90;;;;;;4998549;28;20049;-77
2022/04/14 08:45:31;;;;;;;24.80;17.80;;;14.80;99.90;;;;;;5013561;28;20053;-77
2022/04/14 08:47:59;;;;;;;24.30;17.92;;;14.80;99.90;;;;;;4995360;28;20050;-78
2022/04/14 08:50:25;;;;;;;23.27;16.77;;;14.80;99.90;;;;;;4999315;28;20060;-78
2022/04/14 08:52:51;;;;;;;25.25;17.30;;;14.80;99.90;;;;;;4997700;28;20402;-77
2022/04/14 08:55:17;;;;;;;22.08;16.42;;;14.90;99.90;;;;;;5015983;28;20030;-77
2022/04/14 08:57:43;;;;;;;23.48;18.17;;;15.00;99.90;;;;;;5014906;28;20048;-78
2022/04/14 09:00:12;;;;;;;25.65;19.83;;;15.00;99.90;;;;;;4996072;28;20049;-77
2022/04/14 09:02:39;;;;;;;24.00;19.00;;;15.10;99.90;;;;;;5015696;28;20433;-77
2022/04/14 09:05:06;;;;;;;25.08;18.85;;;15.10;99.90;;;;;;5015823;28;20037;-77
2022/04/14 09:07:31;;;;;;;26.58;20.00;;;15.20;99.90;;;;;;4999667;28;20041;-77
2022/04/14 09:09:57;;;;;;;24.63;18.80;;;15.30;99.90;;;;;;5015801;28;20555;-78
2022/04/14 09:12:23;;;;;;;24.15;18.10;;;15.30;99.90;;;;;;4999583;28;20076;-78
2022/04/14 09:14:49;;;;;;;25.67;18.77;;;15.50;99.90;;;;;;5014147;28;20505;-78
2022/04/14 09:17:15;;;;;;;27.02;18.65;;;15.70;99.90;;;;;;5015492;28;20041;-78
2022/04/14 09:19:44;;;;;;;24.13;19.33;;;15.70;99.90;;;;;;4995208;28;20041;-78
2022/04/14 09:22:14;;;;;;;24.92;19.30;;;15.90;99.90;;;;;;4998876;28;20055;-78
2022/04/14 09:24:45;;;;;;;26.05;20.10;;;15.80;99.90;;;;;;5009757;28;20445;-77
2022/04/14 09:27:23;;;;;;;25.73;19.05;;;16.00;99.90;;;;;;5012228;28;20502;-77
2022/04/14 09:29:49;;;;;;;25.27;19.80;;;16.00;99.90;;;;;;5010545;28;20045;-77
2022/04/14 09:32:37;;;;;;;22.77;16.92;;;15.90;99.90;;;;;;5010532;28;20382;-77
2022/04/14 09:35:05;;;;;;;25.83;18.00;;;16.10;99.90;;;;;;5011168;28;20038;-78
2022/04/14 09:37:31;;;;;;;21.90;16.58;;;16.20;99.90;;;;;;4996037;28;20548;-78
2022/04/14 09:40:08;;;;;;;21.52;16.17;;;16.10;99.90;;;;;;4994756;28;20084;-77
2022/04/14 09:42:35;;;;;;;22.58;14.85;;;16.20;99.90;;;;;;4995725;28;20048;-77
2022/04/14 09:45:21;;;;;;;19.00;15.95;;;16.40;99.90;;;;;;5011739;28;20044;-77
2022/04/14 09:47:48;;;;;;;19.42;14.35;;;16.20;99.90;;;;;;4991197;28;20045;-77
2022/04/14 09:50:29;;;;;;;18.65;14.20;;;16.40;99.90;;;;;;4991144;28;20035;-77
2022/04/14 09:53:07;;;;;;;20.60;15.80;;;16.40;99.90;;;;;;5005303;28;20451;-77
2022/04/14 09:55:39;;;;;;;19.08;14.80;;;16.50;99.90;;;;;;4996005;28;20045;-77
2022/04/14 09:58:16;;;;;;;16.70;12.83;;;16.50;99.90;;;;;;5011002;28;20502;-78
2022/04/14 10:00:47;;;;;;;16.23;12.63;;;16.60;99.90;;;;;;4993305;28;20304;-78
2022/04/14 10:03:14;;;;;;;15.30;12.35;;;16.60;99.90;;;;;;5010699;28;20096;-77
2022/04/14 10:05:40;;;;;;;18.85;13.35;;;16.80;99.90;;;;;;4992399;28;20486;-78
2022/04/14 10:08:08;;;;;;;18.23;13.02;;;16.80;99.90;;;;;;5011599;28;20092;-77
2022/04/14 10:10:39;;;;;;;14.43;11.30;;;16.90;99.90;;;;;;4992953;28;20045;-77
2022/04/14 10:13:06;;;;;;;14.65;11.55;;;17.00;99.90;;;;;;4992558;28;20038;-77
2022/04/14 10:15:40;;;;;;;15.00;10.77;;;17.30;99.90;;;;;;5008682;28;20042;-78
2022/04/14 10:18:12;;;;;;;15.02;10.85;;;17.10;99.90;;;;;;5011984;28;20048;-77
2022/04/14 10:20:40;;;;;;;16.60;11.57;;;17.00;99.90;;;;;;5009087;28;20072;-77
2022/04/14 10:23:07;;;;;;;16.02;11.05;;;16.80;99.90;;;;;;4991320;28;20062;-78
2022/04/14 10:25:36;;;;;;;15.35;10.98;;;16.70;99.90;;;;;;4990290;28;20056;-77
2022/04/14 10:28:03;;;;;;;14.98;9.65;;;16.70;99.90;;;;;;4998167;28;20521;-77
2022/04/14 10:30:29;;;;;;;12.73;8.70;;;16.60;99.90;;;;;;4994401;28;20562;-77
2022/04/14 10:32:55;;;;;;;13.10;8.95;;;16.60;99.90;;;;;;5012163;28;20069;-78
2022/04/14 10:35:23;;;;;;;13.50;7.47;;;16.50;99.90;;;;;;5007682;28;20042;-78
2022/04/14 10:38:06;;;;;;;13.25;7.85;;;16.70;99.90;;;;;;4994860;28;20038;-77
2022/04/14 10:40:34;;;;;;;12.85;7.57;;;16.40;99.90;;;;;;5010059;28;20069;-77
2022/04/14 10:43:02;;;;;;;12.43;8.05;;;16.30;99.90;;;;;;5011538;28;20104;-77
2022/04/14 10:45:27;;;;;;;10.18;5.72;;;16.50;99.90;;;;;;5010638;28;20512;-77
2022/04/14 10:47:58;;;;;;;8.70;4.55;;;16.60;99.90;;;;;;5003533;28;20129;-76
2022/04/14 10:50:29;;;;;;;9.50;4.72;;;16.60;99.90;;;;;;5012395;28;20046;-76
2022/04/14 10:53:12;;;;;;;9.98;4.80;;;16.60;99.90;;;;;;4994754;28;20088;-74
2022/04/14 10:55:48;;;;;;;9.68;4.75;;;16.80;99.90;;;;;;4995117;28;20490;-75
2022/04/14 10:58:29;;;;;;;9.38;4.82;;;17.00;99.90;;;;;;4994304;28;20034;-75
2022/04/14 11:00:56;;;;;;;9.55;4.72;;;17.30;99.90;;;;;;4993944;28;20134;-76
2022/04/14 11:03:44;;;;;;;7.55;3.80;;;17.30;99.90;;;;;;4994676;28;20072;-76
2022/04/14 11:06:09;;;;;;;8.13;4.00;;;17.40;97.50;;;;;;5011481;28;20486;-76
2022/04/14 11:08:46;;;;;;;10.45;4.32;;;17.50;99.90;;;;;;5009967;28;20066;-75
2022/04/14 11:11:13;;;;;;;8.48;4.40;;;17.40;99.90;;;;;;5010724;28;20038;-76
2022/04/14 11:13:51;;;;;;;7.90;4.22;;;17.30;99.90;;;;;;5008382;28;20386;-76
2022/04/14 11:16:44;;;;;;;7.28;3.88;;;17.20;99.90;;;;;;4995670;28;20446;-75
2022/04/14 11:19:19;;;;;;;7.35;4.20;;;16.90;99.90;;;;;;4991583;28;20041;-75
2022/04/14 11:24:40;;;;;;;8.57;3.58;;;16.90;99.30;;;;;;5014619;28;20100;-75
2022/04/14 11:27:16;;;;;;;6.90;3.13;;;16.90;99.90;;;;;;5009800;28;20264;-75
2022/04/14 11:29:44;;;;;;;7.97;3.47;;;17.10;99.90;;;;;;4996932;28;20030;-75
2022/04/14 11:32:10;;;;;;;9.25;3.30;;;17.30;99.90;;;;;;5014077;28;20038;-75
2022/04/14 11:34:40;;;;;;;6.97;2.90;;;17.30;99.90;;;;;;5012885;28;20049;-75
2022/04/14 11:37:37;;;;;;;8.27;2.85;;;17.10;99.90;;;;;;5013567;28;20073;-76
2022/04/14 11:40:17;;;;;;;7.55;2.50;;;17.00;99.90;;;;;;5014201;28;20168;-76
2022/04/14 11:42:47;;;;;;;7.45;3.28;;;17.10;99.90;;;;;;4998153;28;20057;-76
2022/04/14 11:45:13;;;;;;;6.53;3.33;;;17.30;99.90;;;;;;5014346;28;20421;-76
2022/04/14 11:47:38;;;;;;;6.07;2.30;;;17.30;99.90;;;;;;4997512;28;20100;-75
2022/04/14 11:50:06;;;;;;;5.32;2.00;;;17.50;99.90;;;;;;5014047;28;20037;-75
2022/04/14 11:52:33;;;;;;;5.78;2.10;;;17.60;99.90;;;;;;5014483;28;20445;-75
2022/04/14 11:55:00;;;;;;;7.75;2.05;;;17.60;96.30;;;;;;5013949;28;20070;-75
2022/04/14 11:57:29;;;;;;;5.85;1.80;;;17.80;99.90;;;;;;4997767;28;20052;-75
2022/04/14 12:00:09;;;;;;;6.68;2.53;;;17.70;99.10;;;;;;5014398;28;20372;-75
2022/04/14 12:02:35;;;;;;;6.18;1.98;;;17.70;94.30;;;;;;5014126;28;20049;-75
2022/04/14 12:05:01;;;;;;;4.18;1.85;;;17.70;98.30;;;;;;5013927;28;20052;-75
2022/04/14 12:07:31;;;;;;;6.25;2.30;;;17.70;98.60;;;;;;5013723;28;20057;-75
2022/04/14 12:10:05;;;;;;;6.32;2.03;;;17.70;99.60;;;;;;5013808;28;20084;-75
2022/04/14 12:12:37;;;;;;;6.32;2.03;;;17.90;99.90;;;;;;5013927;28;20040;-74
2022/04/14 12:15:04;;;;;;;6.20;1.93;;;18.00;99.60;;;;;;5013911;28;20390;-75
2022/04/14 12:17:30;;;;;;;7.82;2.55;;;18.00;97.90;;;;;;5013819;28;20408;-75
2022/04/14 12:20:03;;;;;;;7.03;2.20;;;17.90;96.30;;;;;;5014078;28;20533;-74
2022/04/14 12:22:31;;;;;;;6.85;2.60;;;18.10;98.20;;;;;;5014681;28;20403;-74
2022/04/14 12:25:02;;;;;;;6.13;2.30;;;18.10;99.30;;;;;;4999894;28;20049;-75
2022/04/14 12:27:39;;;;;;;5.95;2.50;;;18.10;99.20;;;;;;5000549;28;20042;-75
2022/04/14 12:30:09;;;;;;;5.65;2.13;;;18.00;94.00;;;;;;5000216;28;20068;-75
2022/04/14 12:32:34;;;;;;;3.35;1.73;;;17.90;91.90;;;;;;5014765;28;20034;-74
2022/04/14 12:35:01;;;;;;;5.82;2.25;;;17.80;93.60;;;;;;4996784;28;20398;-75
2022/04/14 12:37:34;;;;;;;5.32;2.28;;;17.80;96.30;;;;;;4997248;28;20041;-75
2022/04/14 12:40:09;;;;;;;4.97;2.00;;;17.70;98.30;;;;;;4996761;28;20053;-74
2022/04/14 12:42:36;;;;;;;5.47;2.22;;;17.70;96.20;;;;;;4991275;28;20159;-74